sensor_id;sensor_type;location;lat;lon;timestamp;P1;durP1;ratioP1;P2;durP2;ratioP2
44764;SDS011;30484;52.382;5.260;2024-01-27T00:00:09;43.72;;;6.25;;
44764;SDS011;30484;52.382;5.260;2024-01-27T00:02:42;30.05;;;4.72;;
44764;SDS011;30484;52.382;5.260;2024-01-27T00:05:10;35.30;;;5.28;;
44764;SDS011;30484;52.382;5.260;2024-01-27T00:07:39;43.38;;;5.13;;
44764;SDS011;30484;52.382;5.260;2024-01-27T00:10:07;34.83;;;4.13;;
44764;SDS011;30484;52.382;5.260;2024-01-27T00:12:36;32.60;;;5.10;;
44764;SDS011;30484;52.382;5.260;2024-01-27T00:15:06;36.90;;;5.32;;
44764;SDS011;30484;52.382;5.260;2024-01-27T00:17:36;32.33;;;4.72;;
44764;SDS011;30484;52.382;5.260;2024-01-27T00:20:06;37.97;;;5.80;;
44764;SDS011;30484;52.382;5.260;2024-01-27T00:22:36;38.20;;;5.60;;
44764;SDS011;30484;52.382;5.260;2024-01-27T00:25:04;29.33;;;4.95;;
44764;SDS011;30484;52.382;5.260;2024-01-27T00:27:34;31.77;;;5.28;;
44764;SDS011;30484;52.382;5.260;2024-01-27T00:30:03;34.97;;;5.05;;
44764;SDS011;30484;52.382;5.260;2024-01-27T00:32:32;48.33;;;5.20;;
44764;SDS011;30484;52.382;5.260;2024-01-27T00:35:01;37.20;;;5.40;;
44764;SDS011;30484;52.382;5.260;2024-01-27T00:37:31;38.65;;;4.78;;
44764;SDS011;30484;52.382;5.260;2024-01-27T00:39:59;40.83;;;4.70;;
44764;SDS011;30484;52.382;5.260;2024-01-27T00:42:27;36.00;;;5.10;;
44764;SDS011;30484;52.382;5.260;2024-01-27T00:44:56;31.55;;;4.63;;
44764;SDS011;30484;52.382;5.260;2024-01-27T00:47:24;39.08;;;4.88;;
44764;SDS011;30484;52.382;5.260;2024-01-27T00:49:53;28.80;;;3.78;;
44764;SDS011;30484;52.382;5.260;2024-01-27T00:52:21;23.67;;;4.20;;
44764;SDS011;30484;52.382;5.260;2024-01-27T00:54:51;41.40;;;4.50;;
44764;SDS011;30484;52.382;5.260;2024-01-27T00:57:20;34.25;;;6.35;;
44764;SDS011;30484;52.382;5.260;2024-01-27T00:59:48;43.53;;;5.80;;
44764;SDS011;30484;52.382;5.260;2024-01-27T01:02:16;37.83;;;4.30;;
44764;SDS011;30484;52.382;5.260;2024-01-27T01:04:45;28.05;;;4.30;;
44764;SDS011;30484;52.382;5.260;2024-01-27T01:07:14;43.75;;;5.53;;
44764;SDS011;30484;52.382;5.260;2024-01-27T01:09:42;29.80;;;4.38;;
44764;SDS011;30484;52.382;5.260;2024-01-27T01:12:12;33.10;;;4.18;;
44764;SDS011;30484;52.382;5.260;2024-01-27T01:14:41;31.10;;;4.90;;
44764;SDS011;30484;52.382;5.260;2024-01-27T01:17:10;31.88;;;4.28;;
44764;SDS011;30484;52.382;5.260;2024-01-27T01:19:40;32.00;;;4.63;;
44764;SDS011;30484;52.382;5.260;2024-01-27T01:22:08;29.95;;;4.40;;
44764;SDS011;30484;52.382;5.260;2024-01-27T01:24:39;25.40;;;4.25;;
44764;SDS011;30484;52.382;5.260;2024-01-27T01:27:07;37.15;;;4.30;;
44764;SDS011;30484;52.382;5.260;2024-01-27T01:29:36;37.75;;;4.70;;
44764;SDS011;30484;52.382;5.260;2024-01-27T01:32:05;36.10;;;4.43;;
44764;SDS011;30484;52.382;5.260;2024-01-27T01:34:33;30.67;;;4.57;;
44764;SDS011;30484;52.382;5.260;2024-01-27T01:37:02;34.72;;;4.22;;
44764;SDS011;30484;52.382;5.260;2024-01-27T01:39:31;28.17;;;4.22;;
44764;SDS011;30484;52.382;5.260;2024-01-27T01:41:59;45.15;;;5.60;;
44764;SDS011;30484;52.382;5.260;2024-01-27T01:44:29;28.25;;;4.85;;
44764;SDS011;30484;52.382;5.260;2024-01-27T01:46:59;45.85;;;5.35;;
44764;SDS011;30484;52.382;5.260;2024-01-27T01:49:28;33.95;;;5.00;;
44764;SDS011;30484;52.382;5.260;2024-01-27T01:51:57;29.42;;;5.10;;
44764;SDS011;30484;52.382;5.260;2024-01-27T01:54:25;47.38;;;5.65;;
44764;SDS011;30484;52.382;5.260;2024-01-27T01:56:54;34.42;;;4.57;;
44764;SDS011;30484;52.382;5.260;2024-01-27T01:59:25;37.08;;;4.80;;
44764;SDS011;30484;52.382;5.260;2024-01-27T02:01:54;34.45;;;4.63;;
44764;SDS011;30484;52.382;5.260;2024-01-27T02:04:23;34.45;;;4.57;;
44764;SDS011;30484;52.382;5.260;2024-01-27T02:06:52;46.50;;;4.55;;
44764;SDS011;30484;52.382;5.260;2024-01-27T02:09:20;34.25;;;4.93;;
44764;SDS011;30484;52.382;5.260;2024-01-27T02:11:49;46.80;;;4.85;;
44764;SDS011;30484;52.382;5.260;2024-01-27T02:14:17;35.53;;;4.28;;
44764;SDS011;30484;52.382;5.260;2024-01-27T02:16:46;41.67;;;4.57;;
44764;SDS011;30484;52.382;5.260;2024-01-27T02:19:14;47.63;;;5.63;;
44764;SDS011;30484;52.382;5.260;2024-01-27T02:21:44;31.95;;;3.70;;
44764;SDS011;30484;52.382;5.260;2024-01-27T02:24:14;28.73;;;4.30;;
44764;SDS011;30484;52.382;5.260;2024-01-27T02:26:42;43.65;;;4.85;;
44764;SDS011;30484;52.382;5.260;2024-01-27T02:29:10;40.60;;;4.82;;
44764;SDS011;30484;52.382;5.260;2024-01-27T02:31:39;38.58;;;4.65;;
44764;SDS011;30484;52.382;5.260;2024-01-27T02:34:07;42.72;;;5.25;;
44764;SDS011;30484;52.382;5.260;2024-01-27T02:36:36;34.53;;;3.85;;
44764;SDS011;30484;52.382;5.260;2024-01-27T02:39:04;32.90;;;5.38;;
44764;SDS011;30484;52.382;5.260;2024-01-27T02:41:34;43.33;;;5.00;;
44764;SDS011;30484;52.382;5.260;2024-01-27T02:44:05;27.83;;;4.35;;
44764;SDS011;30484;52.382;5.260;2024-01-27T02:46:33;34.35;;;4.95;;
44764;SDS011;30484;52.382;5.260;2024-01-27T02:49:01;33.15;;;4.40;;
44764;SDS011;30484;52.382;5.260;2024-01-27T02:51:30;41.22;;;5.35;;
44764;SDS011;30484;52.382;5.260;2024-01-27T02:53:58;33.95;;;5.70;;
44764;SDS011;30484;52.382;5.260;2024-01-27T02:56:27;45.63;;;5.28;;
44764;SDS011;30484;52.382;5.260;2024-01-27T02:58:56;45.38;;;5.50;;
44764;SDS011;30484;52.382;5.260;2024-01-27T03:01:25;37.85;;;4.97;;
44764;SDS011;30484;52.382;5.260;2024-01-27T03:03:53;38.72;;;5.05;;
44764;SDS011;30484;52.382;5.260;2024-01-27T03:06:22;27.58;;;4.65;;
44764;SDS011;30484;52.382;5.260;2024-01-27T03:08:50;38.90;;;5.18;;
44764;SDS011;30484;52.382;5.260;2024-01-27T03:11:18;32.17;;;5.63;;
44764;SDS011;30484;52.382;5.260;2024-01-27T03:13:47;35.60;;;5.57;;
44764;SDS011;30484;52.382;5.260;2024-01-27T03:16:17;28.15;;;5.35;;
44764;SDS011;30484;52.382;5.260;2024-01-27T03:18:46;31.80;;;5.45;;
44764;SDS011;30484;52.382;5.260;2024-01-27T03:21:16;38.75;;;5.18;;
44764;SDS011;30484;52.382;5.260;2024-01-27T03:23:44;53.50;;;6.90;;
44764;SDS011;30484;52.382;5.260;2024-01-27T03:26:12;32.78;;;5.20;;
44764;SDS011;30484;52.382;5.260;2024-01-27T03:28:41;48.72;;;6.90;;
44764;SDS011;30484;52.382;5.260;2024-01-27T03:31:09;40.53;;;6.10;;
44764;SDS011;30484;52.382;5.260;2024-01-27T03:33:39;32.72;;;5.80;;
44764;SDS011;30484;52.382;5.260;2024-01-27T03:36:09;43.97;;;5.85;;
44764;SDS011;30484;52.382;5.260;2024-01-27T03:38:38;31.10;;;5.85;;
44764;SDS011;30484;52.382;5.260;2024-01-27T03:41:08;35.58;;;6.32;;
44764;SDS011;30484;52.382;5.260;2024-01-27T03:43:36;29.90;;;6.05;;
44764;SDS011;30484;52.382;5.260;2024-01-27T03:46:04;32.75;;;6.20;;
44764;SDS011;30484;52.382;5.260;2024-01-27T03:48:33;41.95;;;6.38;;
44764;SDS011;30484;52.382;5.260;2024-01-27T03:51:03;41.92;;;6.68;;
44764;SDS011;30484;52.382;5.260;2024-01-27T03:53:32;34.17;;;6.50;;
44764;SDS011;30484;52.382;5.260;2024-01-27T03:56:00;41.83;;;6.97;;
44764;SDS011;30484;52.382;5.260;2024-01-27T03:58:30;31.60;;;6.60;;
44764;SDS011;30484;52.382;5.260;2024-01-27T04:00:59;31.23;;;6.13;;
44764;SDS011;30484;52.382;5.260;2024-01-27T04:03:27;29.17;;;6.32;;
44764;SDS011;30484;52.382;5.260;2024-01-27T04:05:55;42.47;;;7.47;;
44764;SDS011;30484;52.382;5.260;2024-01-27T04:08:26;55.53;;;7.28;;
44764;SDS011;30484;52.382;5.260;2024-01-27T04:10:54;57.97;;;7.20;;
44764;SDS011;30484;52.382;5.260;2024-01-27T04:13:22;46.10;;;7.60;;
44764;SDS011;30484;52.382;5.260;2024-01-27T04:15:51;45.53;;;6.47;;
44764;SDS011;30484;52.382;5.260;2024-01-27T04:18:20;29.48;;;6.63;;
44764;SDS011;30484;52.382;5.260;2024-01-27T04:20:49;36.58;;;6.68;;
44764;SDS011;30484;52.382;5.260;2024-01-27T04:23:17;46.42;;;6.13;;
44764;SDS011;30484;52.382;5.260;2024-01-27T04:25:47;40.75;;;5.68;;
44764;SDS011;30484;52.382;5.260;2024-01-27T04:28:15;36.92;;;6.55;;
44764;SDS011;30484;52.382;5.260;2024-01-27T04:30:44;24.88;;;5.53;;
44764;SDS011;30484;52.382;5.260;2024-01-27T04:33:12;38.13;;;6.28;;
44764;SDS011;30484;52.382;5.260;2024-01-27T04:35:41;48.20;;;5.72;;
44764;SDS011;30484;52.382;5.260;2024-01-27T04:38:09;34.38;;;5.75;;
44764;SDS011;30484;52.382;5.260;2024-01-27T04:40:37;44.05;;;5.63;;
44764;SDS011;30484;52.382;5.260;2024-01-27T04:43:07;46.25;;;5.20;;
44764;SDS011;30484;52.382;5.260;2024-01-27T04:45:35;46.05;;;5.43;;
44764;SDS011;30484;52.382;5.260;2024-01-27T04:48:04;37.92;;;5.70;;
44764;SDS011;30484;52.382;5.260;2024-01-27T04:50:33;38.40;;;5.78;;
44764;SDS011;30484;52.382;5.260;2024-01-27T04:53:02;37.33;;;5.05;;
44764;SDS011;30484;52.382;5.260;2024-01-27T04:55:30;35.15;;;4.68;;
44764;SDS011;30484;52.382;5.260;2024-01-27T04:57:58;43.97;;;4.57;;
44764;SDS011;30484;52.382;5.260;2024-01-27T05:00:28;40.97;;;6.00;;
44764;SDS011;30484;52.382;5.260;2024-01-27T05:02:57;31.10;;;4.97;;
44764;SDS011;30484;52.382;5.260;2024-01-27T05:05:29;37.65;;;5.18;;
44764;SDS011;30484;52.382;5.260;2024-01-27T05:08:02;38.72;;;5.05;;
44764;SDS011;30484;52.382;5.260;2024-01-27T05:10:31;50.20;;;6.15;;
44764;SDS011;30484;52.382;5.260;2024-01-27T05:12:59;32.45;;;4.90;;
44764;SDS011;30484;52.382;5.260;2024-01-27T05:15:29;34.08;;;4.85;;
44764;SDS011;30484;52.382;5.260;2024-01-27T05:17:57;42.20;;;5.40;;
44764;SDS011;30484;52.382;5.260;2024-01-27T05:20:25;38.05;;;5.45;;
44764;SDS011;30484;52.382;5.260;2024-01-27T05:22:54;43.63;;;7.20;;
44764;SDS011;30484;52.382;5.260;2024-01-27T05:25:22;35.05;;;5.70;;
44764;SDS011;30484;52.382;5.260;2024-01-27T05:27:50;47.33;;;6.00;;
44764;SDS011;30484;52.382;5.260;2024-01-27T05:30:18;32.65;;;6.20;;
44764;SDS011;30484;52.382;5.260;2024-01-27T05:32:48;43.92;;;7.57;;
44764;SDS011;30484;52.382;5.260;2024-01-27T05:35:17;43.78;;;7.35;;
44764;SDS011;30484;52.382;5.260;2024-01-27T05:37:45;41.60;;;6.72;;
44764;SDS011;30484;52.382;5.260;2024-01-27T05:40:14;33.45;;;7.13;;
44764;SDS011;30484;52.382;5.260;2024-01-27T05:42:42;49.92;;;7.97;;
44764;SDS011;30484;52.382;5.260;2024-01-27T05:45:11;34.70;;;7.20;;
44764;SDS011;30484;52.382;5.260;2024-01-27T05:47:40;35.28;;;8.43;;
44764;SDS011;30484;52.382;5.260;2024-01-27T05:50:10;42.08;;;9.18;;
44764;SDS011;30484;52.382;5.260;2024-01-27T05:52:38;49.60;;;9.50;;
44764;SDS011;30484;52.382;5.260;2024-01-27T05:55:07;41.25;;;10.27;;
44764;SDS011;30484;52.382;5.260;2024-01-27T05:57:37;60.88;;;9.35;;
44764;SDS011;30484;52.382;5.260;2024-01-27T06:00:06;50.75;;;10.23;;
44764;SDS011;30484;52.382;5.260;2024-01-27T06:02:36;59.20;;;10.43;;
44764;SDS011;30484;52.382;5.260;2024-01-27T06:05:04;38.53;;;10.20;;
44764;SDS011;30484;52.382;5.260;2024-01-27T06:07:38;47.90;;;10.98;;
44764;SDS011;30484;52.382;5.260;2024-01-27T06:10:07;56.75;;;11.93;;
44764;SDS011;30484;52.382;5.260;2024-01-27T06:12:37;47.28;;;11.65;;
44764;SDS011;30484;52.382;5.260;2024-01-27T06:15:07;48.67;;;12.02;;
44764;SDS011;30484;52.382;5.260;2024-01-27T06:17:37;45.38;;;12.80;;
44764;SDS011;30484;52.382;5.260;2024-01-27T06:20:06;49.55;;;11.63;;
44764;SDS011;30484;52.382;5.260;2024-01-27T06:22:36;39.42;;;12.50;;
44764;SDS011;30484;52.382;5.260;2024-01-27T06:25:07;54.70;;;12.85;;
44764;SDS011;30484;52.382;5.260;2024-01-27T06:27:36;52.30;;;13.23;;
44764;SDS011;30484;52.382;5.260;2024-01-27T06:30:05;49.80;;;14.43;;
44764;SDS011;30484;52.382;5.260;2024-01-27T06:32:36;47.83;;;14.45;;
44764;SDS011;30484;52.382;5.260;2024-01-27T06:35:04;62.35;;;15.20;;
44764;SDS011;30484;52.382;5.260;2024-01-27T06:37:33;55.08;;;15.02;;
44764;SDS011;30484;52.382;5.260;2024-01-27T06:40:02;59.83;;;14.90;;
44764;SDS011;30484;52.382;5.260;2024-01-27T06:42:33;59.25;;;14.98;;
44764;SDS011;30484;52.382;5.260;2024-01-27T06:45:01;49.08;;;14.70;;
44764;SDS011;30484;52.382;5.260;2024-01-27T06:47:30;50.80;;;14.70;;
44764;SDS011;30484;52.382;5.260;2024-01-27T06:49:58;68.05;;;16.55;;
44764;SDS011;30484;52.382;5.260;2024-01-27T06:52:27;53.75;;;15.98;;
44764;SDS011;30484;52.382;5.260;2024-01-27T06:54:55;66.05;;;15.68;;
44764;SDS011;30484;52.382;5.260;2024-01-27T06:57:24;59.53;;;16.27;;
44764;SDS011;30484;52.382;5.260;2024-01-27T06:59:54;65.15;;;16.27;;
44764;SDS011;30484;52.382;5.260;2024-01-27T07:02:23;62.50;;;15.50;;
44764;SDS011;30484;52.382;5.260;2024-01-27T07:04:52;55.33;;;15.93;;
44764;SDS011;30484;52.382;5.260;2024-01-27T07:07:22;54.00;;;16.35;;
44764;SDS011;30484;52.382;5.260;2024-01-27T07:09:54;56.83;;;16.42;;
44764;SDS011;30484;52.382;5.260;2024-01-27T07:12:23;73.20;;;17.50;;
44764;SDS011;30484;52.382;5.260;2024-01-27T07:14:53;53.83;;;16.55;;
44764;SDS011;30484;52.382;5.260;2024-01-27T07:17:23;64.57;;;17.77;;
44764;SDS011;30484;52.382;5.260;2024-01-27T07:19:52;48.17;;;16.08;;
44764;SDS011;30484;52.382;5.260;2024-01-27T07:22:20;51.47;;;17.10;;
44764;SDS011;30484;52.382;5.260;2024-01-27T07:24:50;58.85;;;18.08;;
44764;SDS011;30484;52.382;5.260;2024-01-27T07:27:18;60.78;;;17.80;;
44764;SDS011;30484;52.382;5.260;2024-01-27T07:29:46;52.08;;;17.50;;
44764;SDS011;30484;52.382;5.260;2024-01-27T07:32:16;65.85;;;17.85;;
44764;SDS011;30484;52.382;5.260;2024-01-27T07:34:44;65.18;;;17.40;;
44764;SDS011;30484;52.382;5.260;2024-01-27T07:37:12;51.88;;;18.27;;
44764;SDS011;30484;52.382;5.260;2024-01-27T07:39:41;56.03;;;16.85;;
44764;SDS011;30484;52.382;5.260;2024-01-27T07:42:09;58.63;;;17.50;;
44764;SDS011;30484;52.382;5.260;2024-01-27T07:44:37;69.00;;;18.35;;
44764;SDS011;30484;52.382;5.260;2024-01-27T07:47:06;55.88;;;17.70;;
44764;SDS011;30484;52.382;5.260;2024-01-27T07:49:36;65.55;;;18.60;;
44764;SDS011;30484;52.382;5.260;2024-01-27T07:52:05;54.88;;;17.23;;
44764;SDS011;30484;52.382;5.260;2024-01-27T07:54:33;52.85;;;17.00;;
44764;SDS011;30484;52.382;5.260;2024-01-27T07:57:05;56.45;;;17.63;;
44764;SDS011;30484;52.382;5.260;2024-01-27T07:59:34;65.03;;;18.08;;
44764;SDS011;30484;52.382;5.260;2024-01-27T08:02:02;65.15;;;19.48;;
44764;SDS011;30484;52.382;5.260;2024-01-27T08:04:31;58.17;;;18.33;;
44764;SDS011;30484;52.382;5.260;2024-01-27T08:07:00;57.70;;;17.50;;
44764;SDS011;30484;52.382;5.260;2024-01-27T08:09:32;49.38;;;17.15;;
44764;SDS011;30484;52.382;5.260;2024-01-27T08:12:01;61.80;;;17.77;;
44764;SDS011;30484;52.382;5.260;2024-01-27T08:14:30;61.97;;;17.80;;
44764;SDS011;30484;52.382;5.260;2024-01-27T08:17:00;59.05;;;18.90;;
44764;SDS011;30484;52.382;5.260;2024-01-27T08:19:29;61.22;;;18.92;;
44764;SDS011;30484;52.382;5.260;2024-01-27T08:21:58;45.63;;;18.08;;
44764;SDS011;30484;52.382;5.260;2024-01-27T08:24:28;51.75;;;17.50;;
44764;SDS011;30484;52.382;5.260;2024-01-27T08:26:56;66.80;;;19.77;;
44764;SDS011;30484;52.382;5.260;2024-01-27T08:29:27;53.50;;;18.10;;
44764;SDS011;30484;52.382;5.260;2024-01-27T08:31:55;65.10;;;18.83;;
44764;SDS011;30484;52.382;5.260;2024-01-27T08:34:23;51.70;;;17.95;;
44764;SDS011;30484;52.382;5.260;2024-01-27T08:36:52;57.20;;;18.13;;
44764;SDS011;30484;52.382;5.260;2024-01-27T08:39:21;47.33;;;18.73;;
44764;SDS011;30484;52.382;5.260;2024-01-27T08:41:50;53.63;;;19.05;;
44764;SDS011;30484;52.382;5.260;2024-01-27T08:44:18;43.45;;;18.25;;
44764;SDS011;30484;52.382;5.260;2024-01-27T08:46:47;56.72;;;18.70;;
44764;SDS011;30484;52.382;5.260;2024-01-27T08:49:15;46.72;;;17.75;;
44764;SDS011;30484;52.382;5.260;2024-01-27T08:51:43;55.65;;;17.48;;
44764;SDS011;30484;52.382;5.260;2024-01-27T08:54:12;45.78;;;18.25;;
44764;SDS011;30484;52.382;5.260;2024-01-27T08:56:41;51.70;;;17.13;;
44764;SDS011;30484;52.382;5.260;2024-01-27T08:59:10;47.70;;;15.40;;
44764;SDS011;30484;52.382;5.260;2024-01-27T09:01:38;47.75;;;16.30;;
44764;SDS011;30484;52.382;5.260;2024-01-27T09:04:06;44.53;;;15.55;;
44764;SDS011;30484;52.382;5.260;2024-01-27T09:06:35;47.72;;;15.32;;
44764;SDS011;30484;52.382;5.260;2024-01-27T09:09:04;45.25;;;14.57;;
44764;SDS011;30484;52.382;5.260;2024-01-27T09:11:34;42.55;;;13.60;;
44764;SDS011;30484;52.382;5.260;2024-01-27T09:14:04;50.97;;;12.75;;
44764;SDS011;30484;52.382;5.260;2024-01-27T09:16:33;37.50;;;12.38;;
44764;SDS011;30484;52.382;5.260;2024-01-27T09:19:02;47.60;;;12.57;;
44764;SDS011;30484;52.382;5.260;2024-01-27T09:21:30;40.70;;;11.32;;
44764;SDS011;30484;52.382;5.260;2024-01-27T09:23:59;45.67;;;11.65;;
44764;SDS011;30484;52.382;5.260;2024-01-27T09:26:29;38.00;;;10.65;;
44764;SDS011;30484;52.382;5.260;2024-01-27T09:28:57;35.08;;;11.38;;
44764;SDS011;30484;52.382;5.260;2024-01-27T09:31:26;35.92;;;10.52;;
44764;SDS011;30484;52.382;5.260;2024-01-27T09:33:55;35.42;;;9.60;;
44764;SDS011;30484;52.382;5.260;2024-01-27T09:36:24;33.72;;;9.43;;
44764;SDS011;30484;52.382;5.260;2024-01-27T09:38:52;28.98;;;9.05;;
44764;SDS011;30484;52.382;5.260;2024-01-27T09:41:21;32.75;;;9.75;;
44764;SDS011;30484;52.382;5.260;2024-01-27T09:43:49;28.25;;;8.55;;
44764;SDS011;30484;52.382;5.260;2024-01-27T09:46:18;29.77;;;8.85;;
44764;SDS011;30484;52.382;5.260;2024-01-27T09:48:48;31.08;;;8.52;;
44764;SDS011;30484;52.382;5.260;2024-01-27T09:51:16;28.75;;;8.50;;
44764;SDS011;30484;52.382;5.260;2024-01-27T09:53:46;27.88;;;8.25;;
44764;SDS011;30484;52.382;5.260;2024-01-27T09:56:14;31.58;;;8.77;;
44764;SDS011;30484;52.382;5.260;2024-01-27T09:58:44;26.60;;;8.15;;
44764;SDS011;30484;52.382;5.260;2024-01-27T10:01:13;37.50;;;8.07;;
44764;SDS011;30484;52.382;5.260;2024-01-27T10:03:46;30.63;;;8.40;;
44764;SDS011;30484;52.382;5.260;2024-01-27T10:06:16;21.33;;;7.53;;
44764;SDS011;30484;52.382;5.260;2024-01-27T10:08:45;29.88;;;8.05;;
44764;SDS011;30484;52.382;5.260;2024-01-27T10:11:21;26.60;;;7.85;;
44764;SDS011;30484;52.382;5.260;2024-01-27T10:13:54;34.92;;;7.78;;
44764;SDS011;30484;52.382;5.260;2024-01-27T10:16:25;34.43;;;8.10;;
44764;SDS011;30484;52.382;5.260;2024-01-27T10:19:00;26.33;;;7.28;;
44764;SDS011;30484;52.382;5.260;2024-01-27T10:21:29;34.88;;;7.80;;
44764;SDS011;30484;52.382;5.260;2024-01-27T10:23:59;20.90;;;6.78;;
44764;SDS011;30484;52.382;5.260;2024-01-27T10:26:32;23.30;;;6.10;;
44764;SDS011;30484;52.382;5.260;2024-01-27T10:29:01;23.25;;;6.75;;
44764;SDS011;30484;52.382;5.260;2024-01-27T10:31:30;23.42;;;6.05;;
44764;SDS011;30484;52.382;5.260;2024-01-27T10:34:03;22.80;;;6.15;;
44764;SDS011;30484;52.382;5.260;2024-01-27T10:36:39;29.65;;;6.00;;
44764;SDS011;30484;52.382;5.260;2024-01-27T10:39:17;27.45;;;6.60;;
44764;SDS011;30484;52.382;5.260;2024-01-27T10:41:48;24.17;;;6.45;;
44764;SDS011;30484;52.382;5.260;2024-01-27T10:44:18;22.13;;;6.25;;
44764;SDS011;30484;52.382;5.260;2024-01-27T10:46:48;21.80;;;5.75;;
44764;SDS011;30484;52.382;5.260;2024-01-27T10:49:19;21.52;;;6.15;;
44764;SDS011;30484;52.382;5.260;2024-01-27T10:51:53;18.67;;;5.90;;
44764;SDS011;30484;52.382;5.260;2024-01-27T10:54:24;25.30;;;5.78;;
44764;SDS011;30484;52.382;5.260;2024-01-27T10:56:55;24.77;;;5.68;;
44764;SDS011;30484;52.382;5.260;2024-01-27T10:59:25;26.63;;;5.95;;
44764;SDS011;30484;52.382;5.260;2024-01-27T11:01:55;17.73;;;5.65;;
44764;SDS011;30484;52.382;5.260;2024-01-27T11:04:26;19.30;;;5.88;;
44764;SDS011;30484;52.382;5.260;2024-01-27T11:06:59;24.15;;;6.07;;
44764;SDS011;30484;52.382;5.260;2024-01-27T11:09:28;20.10;;;6.28;;
44764;SDS011;30484;52.382;5.260;2024-01-27T11:11:59;18.20;;;5.78;;
44764;SDS011;30484;52.382;5.260;2024-01-27T11:14:29;24.40;;;6.93;;
44764;SDS011;30484;52.382;5.260;2024-01-27T11:16:57;22.30;;;6.75;;
44764;SDS011;30484;52.382;5.260;2024-01-27T11:19:27;23.92;;;6.03;;
44764;SDS011;30484;52.382;5.260;2024-01-27T11:21:59;23.45;;;5.65;;
44764;SDS011;30484;52.382;5.260;2024-01-27T11:24:28;20.73;;;5.72;;
44764;SDS011;30484;52.382;5.260;2024-01-27T11:27:00;19.45;;;5.70;;
44764;SDS011;30484;52.382;5.260;2024-01-27T11:29:31;26.80;;;6.07;;
44764;SDS011;30484;52.382;5.260;2024-01-27T11:32:01;23.60;;;6.00;;
44764;SDS011;30484;52.382;5.260;2024-01-27T11:34:43;27.30;;;6.57;;
44764;SDS011;30484;52.382;5.260;2024-01-27T11:37:15;23.20;;;6.00;;
44764;SDS011;30484;52.382;5.260;2024-01-27T11:39:46;25.02;;;5.88;;
44764;SDS011;30484;52.382;5.260;2024-01-27T11:42:14;28.80;;;6.47;;
44764;SDS011;30484;52.382;5.260;2024-01-27T11:44:44;25.90;;;5.93;;
44764;SDS011;30484;52.382;5.260;2024-01-27T11:47:15;24.40;;;5.45;;
44764;SDS011;30484;52.382;5.260;2024-01-27T11:49:51;18.65;;;4.68;;
44764;SDS011;30484;52.382;5.260;2024-01-27T11:52:24;22.05;;;5.53;;
44764;SDS011;30484;52.382;5.260;2024-01-27T11:54:55;21.95;;;5.72;;
44764;SDS011;30484;52.382;5.260;2024-01-27T11:57:24;25.80;;;5.80;;
44764;SDS011;30484;52.382;5.260;2024-01-27T11:59:53;26.50;;;5.75;;
44764;SDS011;30484;52.382;5.260;2024-01-27T12:02:22;24.77;;;5.30;;
44764;SDS011;30484;52.382;5.260;2024-01-27T12:04:52;24.52;;;6.60;;
44764;SDS011;30484;52.382;5.260;2024-01-27T12:07:20;26.95;;;6.15;;
44764;SDS011;30484;52.382;5.260;2024-01-27T12:09:49;31.33;;;6.57;;
44764;SDS011;30484;52.382;5.260;2024-01-27T12:12:17;22.23;;;5.85;;
44764;SDS011;30484;52.382;5.260;2024-01-27T12:14:47;20.67;;;5.75;;
44764;SDS011;30484;52.382;5.260;2024-01-27T12:17:17;27.05;;;6.20;;
44764;SDS011;30484;52.382;5.260;2024-01-27T12:19:48;26.52;;;6.68;;
44764;SDS011;30484;52.382;5.260;2024-01-27T12:22:20;17.50;;;5.00;;
44764;SDS011;30484;52.382;5.260;2024-01-27T12:24:52;36.25;;;6.57;;
44764;SDS011;30484;52.382;5.260;2024-01-27T12:27:21;22.67;;;4.43;;
44764;SDS011;30484;52.382;5.260;2024-01-27T12:29:50;24.08;;;5.07;;
44764;SDS011;30484;52.382;5.260;2024-01-27T12:32:19;22.15;;;4.70;;
44764;SDS011;30484;52.382;5.260;2024-01-27T12:34:47;29.17;;;5.53;;
44764;SDS011;30484;52.382;5.260;2024-01-27T12:37:20;17.75;;;5.50;;
44764;SDS011;30484;52.382;5.260;2024-01-27T12:39:50;30.55;;;5.60;;
44764;SDS011;30484;52.382;5.260;2024-01-27T12:42:18;21.33;;;5.00;;
44764;SDS011;30484;52.382;5.260;2024-01-27T12:44:47;22.63;;;5.60;;
44764;SDS011;30484;52.382;5.260;2024-01-27T12:47:15;25.52;;;5.60;;
44764;SDS011;30484;52.382;5.260;2024-01-27T12:49:45;25.08;;;5.97;;
44764;SDS011;30484;52.382;5.260;2024-01-27T12:52:19;25.45;;;5.57;;
44764;SDS011;30484;52.382;5.260;2024-01-27T12:54:49;20.60;;;5.07;;
44764;SDS011;30484;52.382;5.260;2024-01-27T12:57:18;22.33;;;5.38;;
44764;SDS011;30484;52.382;5.260;2024-01-27T12:59:47;27.98;;;5.95;;
44764;SDS011;30484;52.382;5.260;2024-01-27T13:02:15;22.73;;;5.25;;
44764;SDS011;30484;52.382;5.260;2024-01-27T13:04:44;15.65;;;4.50;;
44764;SDS011;30484;52.382;5.260;2024-01-27T13:07:13;22.75;;;5.00;;
44764;SDS011;30484;52.382;5.260;2024-01-27T13:09:43;27.88;;;5.63;;
44764;SDS011;30484;52.382;5.260;2024-01-27T13:12:12;22.70;;;4.97;;
44764;SDS011;30484;52.382;5.260;2024-01-27T13:14:40;27.30;;;6.10;;
44764;SDS011;30484;52.382;5.260;2024-01-27T13:17:08;23.73;;;5.72;;
44764;SDS011;30484;52.382;5.260;2024-01-27T13:19:37;25.90;;;6.00;;
44764;SDS011;30484;52.382;5.260;2024-01-27T13:22:05;25.65;;;6.15;;
44764;SDS011;30484;52.382;5.260;2024-01-27T13:24:34;16.20;;;5.00;;
44764;SDS011;30484;52.382;5.260;2024-01-27T13:27:04;31.45;;;5.80;;
44764;SDS011;30484;52.382;5.260;2024-01-27T13:29:34;20.88;;;5.28;;
44764;SDS011;30484;52.382;5.260;2024-01-27T13:32:02;28.30;;;5.60;;
44764;SDS011;30484;52.382;5.260;2024-01-27T13:34:31;26.65;;;6.00;;
44764;SDS011;30484;52.382;5.260;2024-01-27T13:37:00;24.98;;;5.80;;
44764;SDS011;30484;52.382;5.260;2024-01-27T13:39:30;25.40;;;6.60;;
44764;SDS011;30484;52.382;5.260;2024-01-27T13:41:58;21.52;;;6.18;;
44764;SDS011;30484;52.382;5.260;2024-01-27T13:44:28;29.65;;;5.90;;
44764;SDS011;30484;52.382;5.260;2024-01-27T13:47:01;23.60;;;5.15;;
44764;SDS011;30484;52.382;5.260;2024-01-27T13:49:31;35.20;;;5.72;;
44764;SDS011;30484;52.382;5.260;2024-01-27T13:52:00;25.92;;;5.70;;
44764;SDS011;30484;52.382;5.260;2024-01-27T13:54:31;28.73;;;5.63;;
44764;SDS011;30484;52.382;5.260;2024-01-27T13:57:01;25.40;;;6.00;;
44764;SDS011;30484;52.382;5.260;2024-01-27T13:59:31;23.67;;;5.32;;
44764;SDS011;30484;52.382;5.260;2024-01-27T14:02:00;27.90;;;6.05;;
44764;SDS011;30484;52.382;5.260;2024-01-27T14:04:29;25.05;;;5.10;;
44764;SDS011;30484;52.382;5.260;2024-01-27T14:06:57;25.92;;;5.03;;
44764;SDS011;30484;52.382;5.260;2024-01-27T14:09:29;25.80;;;5.90;;
44764;SDS011;30484;52.382;5.260;2024-01-27T14:11:57;38.30;;;6.07;;
44764;SDS011;30484;52.382;5.260;2024-01-27T14:14:27;22.17;;;5.57;;
44764;SDS011;30484;52.382;5.260;2024-01-27T14:16:57;18.65;;;5.15;;
44764;SDS011;30484;52.382;5.260;2024-01-27T14:19:25;30.60;;;5.93;;
44764;SDS011;30484;52.382;5.260;2024-01-27T14:21:54;25.70;;;5.32;;
44764;SDS011;30484;52.382;5.260;2024-01-27T14:24:22;31.98;;;5.22;;
44764;SDS011;30484;52.382;5.260;2024-01-27T14:26:52;25.02;;;5.88;;
44764;SDS011;30484;52.382;5.260;2024-01-27T14:29:20;32.40;;;6.15;;
44764;SDS011;30484;52.382;5.260;2024-01-27T14:31:48;24.52;;;5.03;;
44764;SDS011;30484;52.382;5.260;2024-01-27T14:34:18;23.58;;;5.85;;
44764;SDS011;30484;52.382;5.260;2024-01-27T14:36:46;28.98;;;5.80;;
44764;SDS011;30484;52.382;5.260;2024-01-27T14:39:15;20.60;;;5.95;;
44764;SDS011;30484;52.382;5.260;2024-01-27T14:41:43;22.85;;;5.85;;